<?xml version="1.0" encoding="UTF-8" standalone="no" ?>
<gpx xmlns="http://www.topografix.com/GPX/1/1" xmlns:xsi="http://www.w3.org/2001/XMLSchema-instance" xsi:schemaLocation="http://www.topografix.com/GPX/1/1 http://www.topografix.com/GPX/1/1/gpx.xsd" version="1.1" creator="VisuGPX - https://www.visugpx.com">
  <metadata>
    <name>Ecrins 2021</name>
  </metadata>
  <wpt lat="44.8396" lon="6.47901">
    <ele>1191.4</ele>
    <name><![CDATA[Vallouise]]></name>
  </wpt>
  <wpt lat="44.83903" lon="6.47524">
    <ele>1196.1</ele>
    <name><![CDATA[Pont des Fontaines]]></name>
  </wpt>
  <wpt lat="44.83931" lon="6.45488">
    <ele>1245.7</ele>
    <name><![CDATA[Pont des Places]]></name>
  </wpt>
  <wpt lat="44.83632" lon="6.44255">
    <ele>1309.8</ele>
    <name><![CDATA[Eboulement]]></name>
  </wpt>
  <wpt lat="44.83869" lon="6.44564">
    <ele>1289.8</ele>
    <name><![CDATA[Les Grésourières]]></name>
  </wpt>
  <wpt lat="44.83597" lon="6.43037">
    <ele>1466.9</ele>
    <name><![CDATA[Béassac]]></name>
  </wpt>
  <wpt lat="44.83117" lon="6.40174">
    <ele>1622.1</ele>
    <name><![CDATA[Entre les Aygues]]></name>
  </wpt>
  <wpt lat="44.83049" lon="6.40124">
    <ele>1609.1</ele>
    <name><![CDATA[Passerelle sur le torrent des Bans]]></name>
  </wpt>
  <wpt lat="44.81358" lon="6.38864">
    <ele>1836.5</ele>
    <name><![CDATA[Panneau d'entrée dans le parc des Ecrins]]></name>
  </wpt>
  <wpt lat="44.80661" lon="6.37616">
    <ele>1939.8</ele>
    <name><![CDATA[Passerelle sur le ruisseau du Ravin du Blanc]]></name>
  </wpt>
  <wpt lat="44.8009" lon="6.36589">
    <ele>2016.2</ele>
    <name><![CDATA[Passerelle sur le ruisseau de Chanteloube]]></name>
  </wpt>
  <wpt lat="44.79287" lon="6.36504">
    <ele>2131</ele>
    <name><![CDATA[1er ressaut]]></name>
  </wpt>
  <wpt lat="44.79042" lon="6.36483">
    <ele>2165</ele>
    <name><![CDATA[2ème ressaut]]></name>
  </wpt>
  <wpt lat="44.78733" lon="6.36223">
    <ele>2279.1</ele>
    <name><![CDATA[Champ Rond]]></name>
  </wpt>
  <wpt lat="44.78227" lon="6.35819">
    <ele>2498.2</ele>
    <name><![CDATA[Torrent de la Saume]]></name>
  </wpt>
  <wpt lat="44.76133" lon="6.34075">
    <ele>2074.9</ele>
    <name><![CDATA[Cabanes de Rougnoux]]></name>
  </wpt>
  <wpt lat="44.7633" lon="6.33688">
    <ele>1969.9</ele>
    <name><![CDATA[Passerelle sur le torrent de Rougnoux]]></name>
  </wpt>
  <wpt lat="44.7672" lon="6.32888">
    <ele>1831.2</ele>
    <name><![CDATA[Bivouac du refuge du Pré de la Chaumette]]></name>
  </wpt>
  <wpt lat="44.7729" lon="6.31142">
    <ele>2512.9</ele>
    <name><![CDATA[Sous le Puy de la Chaumette]]></name>
  </wpt>
  <wpt lat="44.81151" lon="6.29603">
    <ele>1704.7</ele>
    <name><![CDATA[Passerelle sur le torrent de Vallonpierre]]></name>
  </wpt>
  <wpt lat="44.81485" lon="6.29576">
    <ele>1660.5</ele>
    <name><![CDATA[Torrent de Vallonpierre]]></name>
  </wpt>
  <wpt lat="44.82482" lon="6.29325">
    <ele>1569.6</ele>
    <name><![CDATA[Passerelle sur la Séveraisse]]></name>
  </wpt>
  <wpt lat="44.82779" lon="6.29194">
    <ele>1545.2</ele>
    <name><![CDATA[Passerelle sur le Torrent de Pis Baumette]]></name>
  </wpt>
  <wpt lat="44.83173" lon="6.28114">
    <ele>1439</ele>
    <name><![CDATA[Passerelle sur le Torrent du Gioberney]]></name>
  </wpt>
  <wpt lat="44.8266" lon="6.26079">
    <ele>1402.8</ele>
    <name><![CDATA[Rif du Sap]]></name>
  </wpt>
  <wpt lat="44.82438" lon="6.23313">
    <ele>1174.1</ele>
    <name><![CDATA[Pont du Hameau du Bourg]]></name>
  </wpt>
  <wpt lat="44.81982" lon="6.21913">
    <ele>1151.2</ele>
    <name><![CDATA[Passerelle du Casset]]></name>
  </wpt>
  <trk>
    <name><![CDATA[E9 Le Désert en Valjouffrey - Valsenestre]]></name>
    <trkseg>
      <trkpt lat="44.86872" lon="6.09214">
        <ele>1264</ele>
        <time>2020-10-27T09:18:28+01:00</time>
      </trkpt>
      <trkpt lat="44.86941" lon="6.09222">
        <ele>1278</ele>
        <time>2020-10-27T09:18:33+01:00</time>
      </trkpt>
      <trkpt lat="44.87011" lon="6.09186">
        <ele>1291</ele>
        <time>2020-10-27T09:18:38+01:00</time>
      </trkpt>
      <trkpt lat="44.87096" lon="6.09205">
        <ele>1308</ele>
        <time>2020-10-27T09:18:43+01:00</time>
      </trkpt>
      <trkpt lat="44.87189" lon="6.09295">
        <ele>1331</ele>
        <time>2020-10-27T09:18:48+01:00</time>
      </trkpt>
      <trkpt lat="44.87319" lon="6.09325">
        <ele>1360</ele>
        <time>2020-10-27T09:18:53+01:00</time>
      </trkpt>
      <trkpt lat="44.87341" lon="6.09259">
        <ele>1378</ele>
        <time>2020-10-27T09:18:58+01:00</time>
      </trkpt>
      <trkpt lat="44.87398" lon="6.09272">
        <ele>1386</ele>
        <time>2020-10-27T09:19:03+01:00</time>
      </trkpt>
      <trkpt lat="44.87426" lon="6.09281">
        <ele>1387</ele>
        <time>2020-10-27T09:19:08+01:00</time>
      </trkpt>
      <trkpt lat="44.8755" lon="6.09178">
        <ele>1425</ele>
        <time>2020-10-27T09:19:13+01:00</time>
      </trkpt>
      <trkpt lat="44.87642" lon="6.09152">
        <ele>1447</ele>
        <time>2020-10-27T09:19:18+01:00</time>
      </trkpt>
      <trkpt lat="44.87759" lon="6.09064">
        <ele>1481</ele>
        <time>2020-10-27T09:19:23+01:00</time>
      </trkpt>
      <trkpt lat="44.87801" lon="6.09028">
        <ele>1497</ele>
        <time>2020-10-27T09:19:28+01:00</time>
      </trkpt>
      <trkpt lat="44.87926" lon="6.08991">
        <ele>1545</ele>
        <time>2020-10-27T09:19:33+01:00</time>
      </trkpt>
      <trkpt lat="44.88055" lon="6.08919">
        <ele>1578</ele>
        <time>2020-10-27T09:19:38+01:00</time>
      </trkpt>
      <trkpt lat="44.88137" lon="6.08867">
        <ele>1603</ele>
        <time>2020-10-27T09:19:43+01:00</time>
      </trkpt>
      <trkpt lat="44.88178" lon="6.08871">
        <ele>1618</ele>
        <time>2020-10-27T09:19:48+01:00</time>
      </trkpt>
      <trkpt lat="44.88239" lon="6.08822">
        <ele>1640</ele>
        <time>2020-10-27T09:19:53+01:00</time>
      </trkpt>
      <trkpt lat="44.883" lon="6.08816">
        <ele>1661</ele>
        <time>2020-10-27T09:19:58+01:00</time>
      </trkpt>
      <trkpt lat="44.88375" lon="6.08773">
        <ele>1691</ele>
        <time>2020-10-27T09:20:03+01:00</time>
      </trkpt>
      <trkpt lat="44.88428" lon="6.08766">
        <ele>1717</ele>
        <time>2020-10-27T09:20:08+01:00</time>
      </trkpt>
      <trkpt lat="44.88502" lon="6.08704">
        <ele>1763</ele>
        <time>2020-10-27T09:20:13+01:00</time>
      </trkpt>
      <trkpt lat="44.8856" lon="6.08674">
        <ele>1793</ele>
        <time>2020-10-27T09:20:18+01:00</time>
      </trkpt>
      <trkpt lat="44.88601" lon="6.08631">
        <ele>1820</ele>
        <time>2020-10-27T09:20:23+01:00</time>
      </trkpt>
      <trkpt lat="44.88641" lon="6.08633">
        <ele>1848</ele>
        <time>2020-10-27T09:20:28+01:00</time>
      </trkpt>
      <trkpt lat="44.88714" lon="6.08524">
        <ele>1898</ele>
        <time>2020-10-27T09:20:33+01:00</time>
      </trkpt>
      <trkpt lat="44.88738" lon="6.08558">
        <ele>1915</ele>
        <time>2020-10-27T09:20:38+01:00</time>
      </trkpt>
      <trkpt lat="44.88802" lon="6.08539">
        <ele>1951</ele>
        <time>2020-10-27T09:20:43+01:00</time>
      </trkpt>
      <trkpt lat="44.88861" lon="6.08547">
        <ele>1981</ele>
        <time>2020-10-27T09:20:48+01:00</time>
      </trkpt>
      <trkpt lat="44.88838" lon="6.08406">
        <ele>2015</ele>
        <time>2020-10-27T09:20:53+01:00</time>
      </trkpt>
      <trkpt lat="44.8886" lon="6.08236">
        <ele>2078</ele>
        <time>2020-10-27T09:20:58+01:00</time>
      </trkpt>
      <trkpt lat="44.88885" lon="6.08172">
        <ele>2105</ele>
        <time>2020-10-27T09:21:03+01:00</time>
      </trkpt>
      <trkpt lat="44.88948" lon="6.0823">
        <ele>2116</ele>
        <time>2020-10-27T09:21:08+01:00</time>
      </trkpt>
      <trkpt lat="44.89001" lon="6.08165">
        <ele>2151</ele>
        <time>2020-10-27T09:21:13+01:00</time>
      </trkpt>
      <trkpt lat="44.89075" lon="6.08165">
        <ele>2199</ele>
        <time>2020-10-27T09:21:18+01:00</time>
      </trkpt>
      <trkpt lat="44.89115" lon="6.08122">
        <ele>2226</ele>
        <time>2020-10-27T09:21:23+01:00</time>
      </trkpt>
      <trkpt lat="44.89135" lon="6.0814">
        <ele>2237</ele>
        <time>2020-10-27T09:21:28+01:00</time>
      </trkpt>
      <trkpt lat="44.89157" lon="6.08047">
        <ele>2254</ele>
        <time>2020-10-27T09:21:33+01:00</time>
      </trkpt>
      <trkpt lat="44.89159" lon="6.08002">
        <ele>2264</ele>
        <time>2020-10-27T09:21:38+01:00</time>
      </trkpt>
      <trkpt lat="44.89205" lon="6.08011">
        <ele>2275</ele>
        <time>2020-10-27T09:21:43+01:00</time>
      </trkpt>
      <trkpt lat="44.89259" lon="6.07934">
        <ele>2286</ele>
        <time>2020-10-27T09:21:48+01:00</time>
      </trkpt>
      <trkpt lat="44.89282" lon="6.0794">
        <ele>2282</ele>
        <time>2020-10-27T09:21:53+01:00</time>
      </trkpt>
      <trkpt lat="44.89285" lon="6.07876">
        <ele>2271</ele>
        <time>2020-10-27T09:21:58+01:00</time>
      </trkpt>
      <trkpt lat="44.89325" lon="6.07889">
        <ele>2258</ele>
        <time>2020-10-27T09:22:03+01:00</time>
      </trkpt>
      <trkpt lat="44.89423" lon="6.07919">
        <ele>2239</ele>
        <time>2020-10-27T09:22:08+01:00</time>
      </trkpt>
      <trkpt lat="44.89367" lon="6.07796">
        <ele>2216</ele>
        <time>2020-10-27T09:22:13+01:00</time>
      </trkpt>
      <trkpt lat="44.89492" lon="6.07886">
        <ele>2193</ele>
        <time>2020-10-27T09:22:18+01:00</time>
      </trkpt>
      <trkpt lat="44.89667" lon="6.08013">
        <ele>2154</ele>
        <time>2020-10-27T09:22:23+01:00</time>
      </trkpt>
      <trkpt lat="44.89629" lon="6.07931">
        <ele>2141</ele>
        <time>2020-10-27T09:22:28+01:00</time>
      </trkpt>
      <trkpt lat="44.89656" lon="6.07934">
        <ele>2131</ele>
        <time>2020-10-27T09:22:33+01:00</time>
      </trkpt>
      <trkpt lat="44.89626" lon="6.07889">
        <ele>2117</ele>
        <time>2020-10-27T09:22:38+01:00</time>
      </trkpt>
      <trkpt lat="44.89697" lon="6.07908">
        <ele>2100</ele>
        <time>2020-10-27T09:22:43+01:00</time>
      </trkpt>
      <trkpt lat="44.8974" lon="6.07949">
        <ele>2091</ele>
        <time>2020-10-27T09:22:48+01:00</time>
      </trkpt>
      <trkpt lat="44.897" lon="6.07833">
        <ele>2056</ele>
        <time>2020-10-27T09:22:53+01:00</time>
      </trkpt>
      <trkpt lat="44.89767" lon="6.0785">
        <ele>2025</ele>
        <time>2020-10-27T09:22:58+01:00</time>
      </trkpt>
      <trkpt lat="44.89749" lon="6.07786">
        <ele>2006</ele>
        <time>2020-10-27T09:23:03+01:00</time>
      </trkpt>
      <trkpt lat="44.8981" lon="6.07859">
        <ele>1999</ele>
        <time>2020-10-27T09:23:08+01:00</time>
      </trkpt>
      <trkpt lat="44.89782" lon="6.07753">
        <ele>1975</ele>
        <time>2020-10-27T09:23:13+01:00</time>
      </trkpt>
      <trkpt lat="44.89811" lon="6.07758">
        <ele>1958</ele>
        <time>2020-10-27T09:23:18+01:00</time>
      </trkpt>
      <trkpt lat="44.89803" lon="6.07721">
        <ele>1944</ele>
        <time>2020-10-27T09:23:23+01:00</time>
      </trkpt>
      <trkpt lat="44.89895" lon="6.07824">
        <ele>1927</ele>
        <time>2020-10-27T09:23:28+01:00</time>
      </trkpt>
      <trkpt lat="44.8998" lon="6.07893">
        <ele>1904</ele>
        <time>2020-10-27T09:23:33+01:00</time>
      </trkpt>
      <trkpt lat="44.90071" lon="6.07979">
        <ele>1885</ele>
        <time>2020-10-27T09:23:38+01:00</time>
      </trkpt>
      <trkpt lat="44.90103" lon="6.08058">
        <ele>1883</ele>
        <time>2020-10-27T09:23:43+01:00</time>
      </trkpt>
      <trkpt lat="44.90162" lon="6.0811">
        <ele>1855</ele>
        <time>2020-10-27T09:23:48+01:00</time>
      </trkpt>
      <trkpt lat="44.90124" lon="6.08187">
        <ele>1847</ele>
        <time>2020-10-27T09:23:53+01:00</time>
      </trkpt>
      <trkpt lat="44.90135" lon="6.08234">
        <ele>1843</ele>
        <time>2020-10-27T09:23:58+01:00</time>
      </trkpt>
      <trkpt lat="44.90194" lon="6.08266">
        <ele>1821</ele>
        <time>2020-10-27T09:24:03+01:00</time>
      </trkpt>
      <trkpt lat="44.90225" lon="6.08313">
        <ele>1814</ele>
        <time>2020-10-27T09:24:08+01:00</time>
      </trkpt>
      <trkpt lat="44.9029" lon="6.08328">
        <ele>1798</ele>
        <time>2020-10-27T09:24:13+01:00</time>
      </trkpt>
      <trkpt lat="44.90358" lon="6.0841">
        <ele>1787</ele>
        <time>2020-10-27T09:24:18+01:00</time>
      </trkpt>
      <trkpt lat="44.90325" lon="6.08277">
        <ele>1760</ele>
        <time>2020-10-27T09:24:23+01:00</time>
      </trkpt>
      <trkpt lat="44.90367" lon="6.08286">
        <ele>1739</ele>
        <time>2020-10-27T09:24:28+01:00</time>
      </trkpt>
      <trkpt lat="44.90342" lon="6.08163">
        <ele>1705</ele>
        <time>2020-10-27T09:24:33+01:00</time>
      </trkpt>
      <trkpt lat="44.9041" lon="6.08187">
        <ele>1679</ele>
        <time>2020-10-27T09:24:38+01:00</time>
      </trkpt>
      <trkpt lat="44.90389" lon="6.08112">
        <ele>1668</ele>
        <time>2020-10-27T09:24:43+01:00</time>
      </trkpt>
      <trkpt lat="44.90414" lon="6.0811">
        <ele>1655</ele>
        <time>2020-10-27T09:24:48+01:00</time>
      </trkpt>
      <trkpt lat="44.90419" lon="6.08075">
        <ele>1643</ele>
        <time>2020-10-27T09:24:53+01:00</time>
      </trkpt>
      <trkpt lat="44.90451" lon="6.08082">
        <ele>1629</ele>
        <time>2020-10-27T09:24:58+01:00</time>
      </trkpt>
      <trkpt lat="44.90437" lon="6.0803">
        <ele>1621</ele>
        <time>2020-10-27T09:25:03+01:00</time>
      </trkpt>
      <trkpt lat="44.90472" lon="6.08043">
        <ele>1610</ele>
        <time>2020-10-27T09:25:08+01:00</time>
      </trkpt>
      <trkpt lat="44.90474" lon="6.08015">
        <ele>1602</ele>
        <time>2020-10-27T09:25:13+01:00</time>
      </trkpt>
      <trkpt lat="44.90492" lon="6.08007">
        <ele>1593</ele>
        <time>2020-10-27T09:25:18+01:00</time>
      </trkpt>
      <trkpt lat="44.90466" lon="6.07901">
        <ele>1575</ele>
        <time>2020-10-27T09:25:23+01:00</time>
      </trkpt>
      <trkpt lat="44.9044" lon="6.07863">
        <ele>1572</ele>
        <time>2020-10-27T09:25:28+01:00</time>
      </trkpt>
      <trkpt lat="44.90422" lon="6.07809">
        <ele>1556</ele>
        <time>2020-10-27T09:25:33+01:00</time>
      </trkpt>
      <trkpt lat="44.90384" lon="6.07771">
        <ele>1541</ele>
        <time>2020-10-27T09:25:38+01:00</time>
      </trkpt>
      <trkpt lat="44.90442" lon="6.07753">
        <ele>1527</ele>
        <time>2020-10-27T09:25:43+01:00</time>
      </trkpt>
      <trkpt lat="44.90413" lon="6.07719">
        <ele>1514</ele>
        <time>2020-10-27T09:25:48+01:00</time>
      </trkpt>
      <trkpt lat="44.90465" lon="6.07706">
        <ele>1512</ele>
        <time>2020-10-27T09:25:53+01:00</time>
      </trkpt>
      <trkpt lat="44.90533" lon="6.07612">
        <ele>1493</ele>
        <time>2020-10-27T09:25:58+01:00</time>
      </trkpt>
      <trkpt lat="44.90582" lon="6.07603">
        <ele>1491</ele>
        <time>2020-10-27T09:26:03+01:00</time>
      </trkpt>
      <trkpt lat="44.906" lon="6.07552">
        <ele>1484</ele>
        <time>2020-10-27T09:26:08+01:00</time>
      </trkpt>
      <trkpt lat="44.90557" lon="6.07462">
        <ele>1470</ele>
        <time>2020-10-27T09:26:13+01:00</time>
      </trkpt>
      <trkpt lat="44.90574" lon="6.07404">
        <ele>1464</ele>
        <time>2020-10-27T09:26:18+01:00</time>
      </trkpt>
      <trkpt lat="44.90538" lon="6.07305">
        <ele>1454</ele>
        <time>2020-10-27T09:26:23+01:00</time>
      </trkpt>
      <trkpt lat="44.90579" lon="6.07135">
        <ele>1438</ele>
        <time>2020-10-27T09:26:28+01:00</time>
      </trkpt>
      <trkpt lat="44.906" lon="6.06959">
        <ele>1421</ele>
        <time>2020-10-27T09:26:33+01:00</time>
      </trkpt>
      <trkpt lat="44.90608" lon="6.06846">
        <ele>1411</ele>
        <time>2020-10-27T09:26:38+01:00</time>
      </trkpt>
      <trkpt lat="44.90665" lon="6.06593">
        <ele>1388</ele>
        <time>2020-10-27T09:26:43+01:00</time>
      </trkpt>
      <trkpt lat="44.90723" lon="6.06301">
        <ele>1359</ele>
        <time>2020-10-27T09:26:48+01:00</time>
      </trkpt>
      <trkpt lat="44.90732" lon="6.06157">
        <ele>1347</ele>
        <time>2020-10-27T09:26:53+01:00</time>
      </trkpt>
      <trkpt lat="44.90755" lon="6.06011">
        <ele>1336</ele>
        <time>2020-10-27T09:26:58+01:00</time>
      </trkpt>
      <trkpt lat="44.90761" lon="6.05872">
        <ele>1324</ele>
        <time>2020-10-27T09:27:03+01:00</time>
      </trkpt>
      <trkpt lat="44.90759" lon="6.05788">
        <ele>1318</ele>
        <time>2020-10-27T09:27:08+01:00</time>
      </trkpt>
      <trkpt lat="44.90779" lon="6.05548">
        <ele>1299</ele>
        <time>2020-10-27T09:27:13+01:00</time>
      </trkpt>
      <trkpt lat="44.90779" lon="6.05419">
        <ele>1291</ele>
        <time>2020-10-27T09:27:18+01:00</time>
      </trkpt>
      <trkpt lat="44.9087" lon="6.05442">
        <ele>1291</ele>
        <time>2020-10-27T09:27:23+01:00</time>
      </trkpt>
      <trkpt lat="44.90925" lon="6.05395">
        <ele>1293</ele>
        <time>2020-10-27T09:27:28+01:00</time>
      </trkpt>
      <trkpt lat="44.9096" lon="6.05427">
        <ele>1298</ele>
        <time>2020-10-27T09:27:33+01:00</time>
      </trkpt>
    </trkseg>
  </trk>
</gpx>